Time;durP1;ratioP1;P1;durP2;ratioP2;P2;SDS_P1;SDS_P2;PMS_P1;PMS_P2;Temp;Humidity;BMP_temperature;BMP_pressure;BME280_temperature;BME280_humidity;BME280_pressure;Samples;Min_cycle;Max_cycle;Signal;HPM_P1;HPM_P2
2021/08/18 00:02:58;;;;;;;3.42;1.70;;;;;;;;;;6210162;28;20057;-79
2021/08/18 00:06:00;;;;;;;2.75;1.65;;;;;;;;;;6229545;28;20153;-78
2021/08/18 00:09:03;;;;;;;2.10;1.35;;;;;;;;;;6207535;28;20050;-79
2021/08/18 00:12:06;;;;;;;1.80;1.30;;;;;;;;;;6233996;28;20056;-79
2021/08/18 00:15:12;;;;;;;2.40;1.40;;;;;;;;;;6232372;28;20128;-79
2021/08/18 00:18:14;;;;;;;3.00;1.50;;;;;;;;;;6234089;28;20050;-79
2021/08/18 00:21:15;;;;;;;2.25;1.30;;;;;;;;;;6214396;28;20056;-79
2021/08/18 00:24:17;;;;;;;1.90;1.10;;;;;;;;;;6228923;28;20047;-79
2021/08/18 00:27:18;;;;;;;3.40;1.70;;;;;;;;;;6208730;28;20171;-79
2021/08/18 00:30:21;;;;;;;5.43;1.75;;;;;;;;;;6228208;28;20052;-80
2021/08/18 00:33:22;;;;;;;2.72;1.50;;;;;;;;;;6195464;28;20039;-79
2021/08/18 00:36:24;;;;;;;2.17;1.27;;;;;;;;;;6182363;28;20049;-79
2021/08/18 00:39:26;;;;;;;2.92;1.52;;;;;;;;;;6206933;28;20290;-79
2021/08/18 00:42:27;;;;;;;3.03;1.67;;;;;;;;;;6208592;28;20050;-79
2021/08/18 00:45:29;;;;;;;3.70;1.60;;;;;;;;;;6212882;28;20046;-80
2021/08/18 00:48:30;;;;;;;2.63;1.50;;;;;;;;;;6233047;28;20410;-79
2021/08/18 00:51:32;;;;;;;2.78;1.50;;;;;;;;;;6223467;28;20048;-80
2021/08/18 00:54:34;;;;;;;2.38;1.45;;;;;;;;;;6208575;28;20325;-80
2021/08/18 00:57:35;;;;;;;4.32;1.40;;;;;;;;;;6208472;28;20050;-80
2021/08/18 01:00:37;;;;;;;3.20;1.63;;;;;;;;;;6206565;28;20150;-80
2021/08/18 01:03:39;;;;;;;3.33;1.57;;;;;;;;;;6191026;28;20054;-79
2021/08/18 01:06:46;;;;;;;3.47;1.38;;;;;;;;;;6205414;28;20051;-79
2021/08/18 01:09:47;;;;;;;2.53;1.45;;;;;;;;;;6208280;28;20048;-79
2021/08/18 01:12:49;;;;;;;2.22;1.23;;;;;;;;;;6207798;28;20034;-79
2021/08/18 01:15:51;;;;;;;2.58;1.33;;;;;;;;;;6222536;28;20042;-79
2021/08/18 01:18:53;;;;;;;4.45;1.60;;;;;;;;;;6214577;28;20045;-79
2021/08/18 01:21:54;;;;;;;2.35;1.50;;;;;;;;;;6219614;28;20060;-79
2021/08/18 01:24:56;;;;;;;1.50;1.20;;;;;;;;;;6205959;28;20050;-79
2021/08/18 01:28:01;;;;;;;2.28;1.42;;;;;;;;;;6190719;28;20051;-79
2021/08/18 01:31:03;;;;;;;3.10;1.58;;;;;;;;;;6219353;28;20037;-80
2021/08/18 01:34:05;;;;;;;3.03;1.13;;;;;;;;;;6231914;28;20046;-79
2021/08/18 01:37:07;;;;;;;3.38;1.83;;;;;;;;;;6228337;28;20046;-79
2021/08/18 01:40:09;;;;;;;2.83;1.63;;;;;;;;;;6207438;28;20043;-80
2021/08/18 01:43:11;;;;;;;2.70;1.50;;;;;;;;;;6204562;28;20048;-79
2021/08/18 01:46:12;;;;;;;1.90;1.30;;;;;;;;;;6197408;28;20062;-79
2021/08/18 01:49:14;;;;;;;4.53;1.30;;;;;;;;;;6207928;28;20057;-81
2021/08/18 01:52:17;;;;;;;4.13;1.58;;;;;;;;;;6191738;28;20051;-79
2021/08/18 01:55:20;;;;;;;3.63;1.57;;;;;;;;;;6189246;28;20052;-80
2021/08/18 01:58:22;;;;;;;2.72;1.60;;;;;;;;;;6207041;28;20111;-80
2021/08/18 02:01:24;;;;;;;3.38;1.63;;;;;;;;;;6204525;28;20065;-79
2021/08/18 02:04:26;;;;;;;5.38;1.90;;;;;;;;;;6205343;28;20046;-79
2021/08/18 02:07:27;;;;;;;3.25;2.17;;;;;;;;;;6195368;28;20512;-79
2021/08/18 02:10:30;;;;;;;3.55;2.08;;;;;;;;;;6181700;28;20078;-80
2021/08/18 02:13:32;;;;;;;3.78;2.05;;;;;;;;;;6197871;28;20046;-80
2021/08/18 02:16:34;;;;;;;3.72;2.10;;;;;;;;;;6203209;28;20045;-80
2021/08/18 02:19:35;;;;;;;4.28;2.22;;;;;;;;;;6209779;28;20050;-79
2021/08/18 02:22:37;;;;;;;3.03;2.13;;;;;;;;;;6184653;28;20042;-79
2021/08/18 02:25:38;;;;;;;3.65;1.95;;;;;;;;;;6201177;28;20043;-80
2021/08/18 02:28:40;;;;;;;3.10;1.88;;;;;;;;;;6221195;28;20056;-80
2021/08/18 02:31:41;;;;;;;2.33;1.75;;;;;;;;;;6203074;28;20056;-79
2021/08/18 02:34:43;;;;;;;3.42;1.90;;;;;;;;;;6229871;28;20046;-80
2021/08/18 02:37:46;;;;;;;2.75;1.58;;;;;;;;;;6229361;28;20052;-80
2021/08/18 02:40:47;;;;;;;3.25;1.50;;;;;;;;;;6229947;28;20037;-80
2021/08/18 02:43:49;;;;;;;2.35;1.60;;;;;;;;;;6211484;28;20101;-80
2021/08/18 02:46:50;;;;;;;3.90;1.80;;;;;;;;;;6226716;28;20053;-80
2021/08/18 02:49:53;;;;;;;4.05;1.58;;;;;;;;;;6229167;28;20058;-80
2021/08/18 02:52:55;;;;;;;2.55;1.52;;;;;;;;;;6208988;28;20057;-79
2021/08/18 02:55:57;;;;;;;4.07;1.60;;;;;;;;;;6205403;28;20132;-80
2021/08/18 02:58:58;;;;;;;2.45;1.80;;;;;;;;;;6206985;28;20385;-80
2021/08/18 03:02:00;;;;;;;2.55;1.70;;;;;;;;;;6223362;28;20054;-79
2021/08/18 03:05:03;;;;;;;2.45;1.60;;;;;;;;;;6205492;28;20106;-80
2021/08/18 03:08:04;;;;;;;1.67;1.53;;;;;;;;;;6205968;28;20043;-80
2021/08/18 03:11:06;;;;;;;2.03;1.20;;;;;;;;;;6206208;28;20129;-79
2021/08/18 03:14:08;;;;;;;4.40;1.60;;;;;;;;;;6205243;28;20106;-80
2021/08/18 03:17:10;;;;;;;2.17;1.52;;;;;;;;;;6188391;28;20038;-80
2021/08/18 03:20:12;;;;;;;3.35;1.50;;;;;;;;;;6205581;28;20050;-79
2021/08/18 03:23:14;;;;;;;1.90;1.30;;;;;;;;;;6227868;28;20046;-79
2021/08/18 03:26:15;;;;;;;2.28;1.50;;;;;;;;;;6227889;28;20041;-79
2021/08/18 03:29:17;;;;;;;4.90;1.42;;;;;;;;;;6230053;28;20052;-79
2021/08/18 03:32:19;;;;;;;3.20;1.73;;;;;;;;;;6211132;28;20050;-79
2021/08/18 03:35:20;;;;;;;2.15;1.58;;;;;;;;;;6207302;28;20050;-79
2021/08/18 03:38:22;;;;;;;4.30;1.52;;;;;;;;;;6208670;28;20043;-79
2021/08/18 03:41:23;;;;;;;2.08;1.40;;;;;;;;;;6207914;28;20038;-78
2021/08/18 03:44:26;;;;;;;2.38;1.50;;;;;;;;;;6200317;28;20042;-78
2021/08/18 03:47:27;;;;;;;1.70;1.33;;;;;;;;;;6205712;28;20487;-78
2021/08/18 03:50:29;;;;;;;3.03;1.45;;;;;;;;;;6190036;28;20289;-78
2021/08/18 03:53:30;;;;;;;3.83;1.60;;;;;;;;;;6207105;28;20040;-78
2021/08/18 03:56:32;;;;;;;1.88;1.20;;;;;;;;;;6183440;28;20046;-78
2021/08/18 03:59:33;;;;;;;2.78;1.25;;;;;;;;;;6198091;28;20068;-78
2021/08/18 04:02:36;;;;;;;2.15;1.10;;;;;;;;;;6223507;28;20046;-78
2021/08/18 04:05:38;;;;;;;1.55;1.30;;;;;;;;;;6202032;28;20049;-78
2021/08/18 04:08:39;;;;;;;1.42;1.20;;;;;;;;;;6222665;28;20044;-78
2021/08/18 04:11:41;;;;;;;1.98;1.00;;;;;;;;;;6221431;28;20054;-78
2021/08/18 04:14:42;;;;;;;2.25;1.17;;;;;;;;;;6221057;28;20046;-78
2021/08/18 04:17:44;;;;;;;2.17;1.13;;;;;;;;;;6222567;28;20046;-78
2021/08/18 04:20:45;;;;;;;2.10;1.05;;;;;;;;;;6221216;28;20549;-78
2021/08/18 04:23:47;;;;;;;3.05;0.98;;;;;;;;;;6222890;28;20052;-78
2021/08/18 04:26:48;;;;;;;1.65;0.80;;;;;;;;;;6204369;28;20033;-78
2021/08/18 04:29:50;;;;;;;1.83;1.00;;;;;;;;;;6223539;28;20050;-77
2021/08/18 04:32:52;;;;;;;1.17;0.85;;;;;;;;;;6220301;28;20042;-78
2021/08/18 04:35:54;;;;;;;1.08;0.85;;;;;;;;;;6222810;28;20061;-78
2021/08/18 04:38:56;;;;;;;1.10;0.80;;;;;;;;;;6220529;28;20041;-77
2021/08/18 04:41:57;;;;;;;1.45;0.88;;;;;;;;;;6220333;28;20085;-78
2021/08/18 04:44:59;;;;;;;1.10;0.90;;;;;;;;;;6218703;28;20042;-78
2021/08/18 04:48:00;;;;;;;3.00;1.15;;;;;;;;;;6221017;28;20050;-78
2021/08/18 04:51:02;;;;;;;1.00;0.80;;;;;;;;;;6220656;28;20056;-78
2021/08/18 04:54:07;;;;;;;1.30;0.90;;;;;;;;;;6210050;28;20049;-78
2021/08/18 04:57:08;;;;;;;2.33;1.27;;;;;;;;;;6219843;28;20042;-77
2021/08/18 05:00:12;;;;;;;1.58;1.20;;;;;;;;;;6212735;28;20684;-78
2021/08/18 05:03:14;;;;;;;1.92;1.20;;;;;;;;;;6220195;28;20048;-78
2021/08/18 05:06:16;;;;;;;2.10;1.40;;;;;;;;;;6211760;28;20050;-78
2021/08/18 05:09:17;;;;;;;1.20;0.90;;;;;;;;;;6191753;28;20278;-78
2021/08/18 05:12:19;;;;;;;2.08;1.10;;;;;;;;;;6194476;28;20043;-77
2021/08/18 05:15:22;;;;;;;2.83;1.30;;;;;;;;;;6195622;28;20423;-77
2021/08/18 05:18:24;;;;;;;;;;;;;;;;;;6196173;28;20042;-78
2021/08/18 05:21:25;;;;;;;3.40;1.25;;;;;;;;;;6178326;28;19929;-77
2021/08/18 05:24:27;;;;;;;2.50;1.38;;;;;;;;;;6195247;28;20057;-78
2021/08/18 05:27:28;;;;;;;4.07;1.25;;;;;;;;;;6196101;28;20143;-78
2021/08/18 05:30:31;;;;;;;1.67;1.33;;;;;;;;;;6195978;28;20047;-78
2021/08/18 05:33:33;;;;;;;2.30;1.33;;;;;;;;;;6218970;28;20037;-78
2021/08/18 05:36:34;;;;;;;1.45;1.15;;;;;;;;;;6200962;28;20141;-78
2021/08/18 05:39:36;;;;;;;2.38;1.30;;;;;;;;;;6216680;28;20050;-78
2021/08/18 05:42:38;;;;;;;3.13;1.30;;;;;;;;;;6220572;28;20044;-78
2021/08/18 05:45:39;;;;;;;2.05;1.20;;;;;;;;;;6200073;28;20096;-78
2021/08/18 05:48:41;;;;;;;2.47;1.35;;;;;;;;;;6201608;28;20554;-78
2021/08/18 05:51:43;;;;;;;3.78;1.50;;;;;;;;;;6210904;28;20038;-78
2021/08/18 05:54:44;;;;;;;2.22;1.50;;;;;;;;;;6213212;28;20049;-78
2021/08/18 05:57:46;;;;;;;1.50;1.27;;;;;;;;;;6218370;28;20042;-78
2021/08/18 06:00:47;;;;;;;2.42;1.50;;;;;;;;;;6214033;28;20048;-78
2021/08/18 06:03:49;;;;;;;3.08;1.60;;;;;;;;;;6213693;28;20108;-78
2021/08/18 06:06:50;;;;;;;2.28;1.52;;;;;;;;;;6214053;28;20423;-78
2021/08/18 06:09:52;;;;;;;2.83;1.83;;;;;;;;;;6219280;28;20038;-78
2021/08/18 06:12:53;;;;;;;2.50;2.05;;;;;;;;;;6224070;28;20507;-78
2021/08/18 06:15:56;;;;;;;4.47;2.33;;;;;;;;;;6219780;28;20053;-77
2021/08/18 06:18:59;;;;;;;3.28;2.25;;;;;;;;;;6200099;28;20046;-78
2021/08/18 06:22:01;;;;;;;4.15;3.15;;;;;;;;;;6206616;28;20081;-77
2021/08/18 06:25:03;;;;;;;2.85;2.28;;;;;;;;;;6193562;28;20046;-77
2021/08/18 06:28:04;;;;;;;4.32;2.92;;;;;;;;;;6193920;28;20035;-77
2021/08/18 06:31:06;;;;;;;4.10;2.65;;;;;;;;;;6195039;28;20048;-78
2021/08/18 06:34:07;;;;;;;5.35;2.70;;;;;;;;;;6174420;28;20039;-78
2021/08/18 06:37:09;;;;;;;3.80;2.92;;;;;;;;;;6209983;28;20057;-78
2021/08/18 06:40:11;;;;;;;3.85;2.70;;;;;;;;;;6221570;28;20046;-78
2021/08/18 06:43:13;;;;;;;3.90;2.75;;;;;;;;;;6213054;28;20046;-78
2021/08/18 06:46:14;;;;;;;5.25;2.58;;;;;;;;;;6221546;28;20038;-78
2021/08/18 06:49:16;;;;;;;5.85;2.65;;;;;;;;;;6225393;28;20049;-78
2021/08/18 06:52:18;;;;;;;3.42;2.50;;;;;;;;;;6205929;28;20050;-78
2021/08/18 06:55:19;;;;;;;3.55;2.60;;;;;;;;;;6194338;28;20057;-78
2021/08/18 06:58:21;;;;;;;4.30;2.90;;;;;;;;;;6171418;28;20420;-78
2021/08/18 07:01:23;;;;;;;4.65;3.28;;;;;;;;;;6178184;28;20106;-78
2021/08/18 07:04:25;;;;;;;3.70;2.83;;;;;;;;;;6176084;28;20420;-78
2021/08/18 07:07:27;;;;;;;3.53;3.00;;;;;;;;;;6192113;28;20042;-78
2021/08/18 07:10:29;;;;;;;4.27;3.17;;;;;;;;;;6233227;28;20050;-79
2021/08/18 07:13:31;;;;;;;4.28;3.08;;;;;;;;;;6205837;28;20065;-78
2021/08/18 07:16:34;;;;;;;4.60;3.28;;;;;;;;;;6208181;28;20046;-77
2021/08/18 07:19:36;;;;;;;4.13;3.20;;;;;;;;;;6231622;28;20073;-78
2021/08/18 07:22:38;;;;;;;3.40;2.90;;;;;;;;;;6187698;28;20039;-78
2021/08/18 07:25:39;;;;;;;5.00;3.65;;;;;;;;;;6180483;28;20054;-78
2021/08/18 07:28:41;;;;;;;4.13;3.53;;;;;;;;;;6177754;28;20511;-77
2021/08/18 07:31:43;;;;;;;5.97;3.23;;;;;;;;;;6177136;28;20501;-78
2021/08/18 07:34:45;;;;;;;4.80;3.88;;;;;;;;;;6192126;28;20135;-77
2021/08/18 07:37:47;;;;;;;4.88;3.33;;;;;;;;;;6192801;28;20054;-77
2021/08/18 07:40:49;;;;;;;5.97;3.72;;;;;;;;;;6202759;28;20095;-77
2021/08/18 07:43:50;;;;;;;4.60;3.67;;;;;;;;;;6219479;28;20042;-78
2021/08/18 07:46:52;;;;;;;6.70;4.40;;;;;;;;;;6219581;28;20053;-77
2021/08/18 07:49:53;;;;;;;5.85;4.28;;;;;;;;;;6220160;28;20080;-77
2021/08/18 07:52:55;;;;;;;6.63;4.60;;;;;;;;;;6221468;28;20054;-78
2021/08/18 07:55:57;;;;;;;8.32;5.07;;;;;;;;;;6203974;28;20049;-78
2021/08/18 07:59:00;;;;;;;6.93;4.60;;;;;;;;;;6222964;28;20071;-78
2021/08/18 08:02:09;;;;;;;8.45;5.70;;;;;;;;;;6226773;28;20042;-78
2021/08/18 08:05:11;;;;;;;9.02;5.97;;;;;;;;;;6227110;28;20054;-78
2021/08/18 08:08:13;;;;;;;9.95;6.32;;;;;;;;;;6184276;28;20053;-78
2021/08/18 08:11:18;;;;;;;11.13;7.10;;;;;;;;;;6209553;28;20049;-78
2021/08/18 08:14:20;;;;;;;12.53;6.90;;;;;;;;;;6223696;28;20049;-78
2021/08/18 08:17:21;;;;;;;12.15;7.35;;;;;;;;;;6201213;28;20322;-78
2021/08/18 08:20:23;;;;;;;12.73;7.70;;;;;;;;;;6204032;28;20048;-78
2021/08/18 08:23:24;;;;;;;12.60;7.35;;;;;;;;;;6219487;28;20050;-78
2021/08/18 08:26:26;;;;;;;11.38;7.32;;;;;;;;;;6201191;28;20050;-78
2021/08/18 08:29:28;;;;;;;12.80;7.93;;;;;;;;;;6198374;28;20074;-78
2021/08/18 08:32:30;;;;;;;15.13;8.82;;;;;;;;;;6202966;28;20042;-76
2021/08/18 08:35:31;;;;;;;14.10;7.72;;;;;;;;;;6203067;28;20135;-79
2021/08/18 08:38:33;;;;;;;14.18;8.30;;;;;;;;;;6202966;28;20054;-79
2021/08/18 08:41:35;;;;;;;12.68;7.72;;;;;;;;;;6202195;28;20062;-79
2021/08/18 08:44:39;;;;;;;13.65;7.15;;;;;;;;;;6199156;28;20042;-78
2021/08/18 08:47:41;;;;;;;12.07;7.32;;;;;;;;;;6198565;28;20124;-81
2021/08/18 08:50:49;;;;;;;10.13;6.38;;;;;;;;;;6205724;28;20061;-79
2021/08/18 08:53:50;;;;;;;11.38;6.47;;;;;;;;;;6200953;28;20039;-79
2021/08/18 08:56:53;;;;;;;11.00;5.95;;;;;;;;;;6209595;28;20057;-79
2021/08/18 08:59:54;;;;;;;7.65;5.63;;;;;;;;;;6213093;28;20049;-78
2021/08/18 09:03:24;;;;;;;9.35;5.97;;;;;;;;;;6225809;28;20064;-78
2021/08/18 09:06:27;;;;;;;6.28;4.63;;;;;;;;;;6195754;28;20424;-78
2021/08/18 09:09:29;;;;;;;10.80;5.32;;;;;;;;;;6201367;28;20046;-80
2021/08/18 09:12:32;;;;;;;8.13;4.85;;;;;;;;;;6198154;28;20173;-79
2021/08/18 09:15:36;;;;;;;6.55;4.60;;;;;;;;;;6189156;28;20050;-79
2021/08/18 09:18:48;;;;;;;6.27;4.60;;;;;;;;;;6176653;28;20053;-81
2021/08/18 09:21:49;;;;;;;7.82;4.05;;;;;;;;;;6193649;28;20106;-80
2021/08/18 09:25:08;;;;;;;7.07;4.63;;;;;;;;;;6203311;28;20042;-79
2021/08/18 09:28:10;;;;;;;6.35;4.65;;;;;;;;;;6197274;28;20078;-79
2021/08/18 09:31:24;;;;;;;5.20;4.00;;;;;;;;;;6197299;28;20060;-79
2021/08/18 09:34:26;;;;;;;7.18;3.92;;;;;;;;;;6178828;28;20477;-78
2021/08/18 09:37:29;;;;;;;4.60;3.70;;;;;;;;;;6179126;28;20473;-79
2021/08/18 09:40:30;;;;;;;6.68;4.22;;;;;;;;;;6179791;28;20045;-79
2021/08/18 09:43:32;;;;;;;5.95;4.00;;;;;;;;;;6179868;28;20078;-79
2021/08/18 09:46:36;;;;;;;5.15;3.63;;;;;;;;;;6181471;28;20480;-78
2021/08/18 09:49:38;;;;;;;5.38;3.90;;;;;;;;;;6180140;28;20043;-79
2021/08/18 09:52:39;;;;;;;5.72;4.07;;;;;;;;;;6199986;28;20125;-79
2021/08/18 09:56:08;;;;;;;5.75;4.28;;;;;;;;;;6201847;28;20042;-80
2021/08/18 09:59:11;;;;;;;6.15;3.80;;;;;;;;;;6212636;28;20065;-79
2021/08/18 10:02:13;;;;;;;4.95;3.83;;;;;;;;;;6204545;28;20061;-79
2021/08/18 10:05:15;;;;;;;4.78;2.97;;;;;;;;;;6205357;28;20049;-80
2021/08/18 10:08:18;;;;;;;4.80;3.17;;;;;;;;;;6182959;28;20066;-80
2021/08/18 10:11:21;;;;;;;6.03;2.80;;;;;;;;;;6181169;28;20055;-79
2021/08/18 10:14:23;;;;;;;4.15;3.17;;;;;;;;;;6189942;28;20046;-79
2021/08/18 10:17:25;;;;;;;4.28;3.38;;;;;;;;;;6208121;28;20062;-80
2021/08/18 10:20:27;;;;;;;4.30;3.63;;;;;;;;;;6206960;28;20062;-79
2021/08/18 10:23:43;;;;;;;4.93;3.35;;;;;;;;;;6207144;28;20042;-78
2021/08/18 10:26:50;;;;;;;4.90;3.60;;;;;;;;;;6227842;28;20193;-79
2021/08/18 10:30:21;;;;;;;6.15;3.85;;;;;;;;;;6230119;28;20050;-80
2021/08/18 10:33:54;;;;;;;6.05;4.65;;;;;;;;;;6226584;28;20052;-81
2021/08/18 10:36:56;;;;;;;6.25;4.78;;;;;;;;;;6224807;28;20056;-80
2021/08/18 10:40:13;;;;;;;5.97;4.45;;;;;;;;;;6200727;28;20038;-81
2021/08/18 10:43:58;;;;;;;6.35;4.93;;;;;;;;;;6168442;28;20053;-81
2021/08/18 10:47:27;;;;;;;7.63;5.17;;;;;;;;;;6171483;28;20086;-81
2021/08/18 10:50:40;;;;;;;9.65;4.93;;;;;;;;;;6220457;28;20273;-81
2021/08/18 10:53:42;;;;;;;6.75;5.43;;;;;;;;;;6219009;28;20054;-81
2021/08/18 10:56:48;;;;;;;8.77;5.18;;;;;;;;;;6223955;28;20050;-81
2021/08/18 10:59:51;;;;;;;7.25;5.28;;;;;;;;;;6224984;28;20447;-81
2021/08/18 11:03:22;;;;;;;7.45;4.78;;;;;;;;;;6200490;28;20169;-80
2021/08/18 11:06:50;;;;;;;6.63;4.93;;;;;;;;;;6217498;28;20049;-80
2021/08/18 11:09:54;;;;;;;5.20;4.13;;;;;;;;;;6160981;28;20066;-80
2021/08/18 11:12:57;;;;;;;6.35;3.95;;;;;;;;;;6178652;28;20050;-80
2021/08/18 11:15:59;;;;;;;;;;;;;;;;;;6178142;28;20057;-80
2021/08/18 11:19:11;;;;;;;4.47;3.53;;;;;;;;;;6175854;28;19926;-79
2021/08/18 11:22:13;;;;;;;5.20;3.40;;;;;;;;;;6174931;28;20050;-80
2021/08/18 11:25:17;;;;;;;3.90;3.38;;;;;;;;;;6174048;28;20251;-80
2021/08/18 11:28:24;;;;;;;3.63;3.30;;;;;;;;;;6176319;28;20061;-80
2021/08/18 11:31:31;;;;;;;4.45;3.70;;;;;;;;;;6177549;28;20051;-81
2021/08/18 11:34:38;;;;;;;4.00;3.35;;;;;;;;;;6172024;28;20055;-80
2021/08/18 11:37:39;;;;;;;3.35;2.80;;;;;;;;;;6187305;28;20046;-80
2021/08/18 11:40:42;;;;;;;3.85;2.97;;;;;;;;;;6198026;28;20411;-80
2021/08/18 11:43:44;;;;;;;3.05;2.72;;;;;;;;;;6204228;28;20041;-80
2021/08/18 11:46:46;;;;;;;4.55;2.78;;;;;;;;;;6203106;28;20073;-80
2021/08/18 11:49:48;;;;;;;4.67;2.63;;;;;;;;;;6201949;28;20042;-80
2021/08/18 11:52:58;;;;;;;2.50;2.27;;;;;;;;;;6205453;28;20077;-81
2021/08/18 11:56:02;;;;;;;3.83;2.10;;;;;;;;;;6200987;28;20270;-80
2021/08/18 11:59:06;;;;;;;2.63;2.38;;;;;;;;;;6199413;28;20042;-80
2021/08/18 12:02:09;;;;;;;2.55;1.92;;;;;;;;;;6191550;28;20056;-80
2021/08/18 12:05:15;;;;;;;2.88;2.13;;;;;;;;;;6220601;28;20046;-80
2021/08/18 12:08:17;;;;;;;2.25;2.03;;;;;;;;;;6188033;28;20046;-81
2021/08/18 12:11:33;;;;;;;3.25;2.40;;;;;;;;;;6199827;28;20050;-80
2021/08/18 12:14:43;;;;;;;2.42;2.20;;;;;;;;;;6201197;28;20042;-80
2021/08/18 12:17:45;;;;;;;2.55;2.35;;;;;;;;;;6178672;28;20049;-80
2021/08/18 12:20:47;;;;;;;3.33;2.20;;;;;;;;;;6191133;28;20563;-80
2021/08/18 12:23:58;;;;;;;2.42;2.22;;;;;;;;;;6188674;28;20288;-80
2021/08/18 12:27:05;;;;;;;2.78;2.08;;;;;;;;;;6199181;28;20057;-80
2021/08/18 12:30:09;;;;;;;3.00;2.70;;;;;;;;;;6165362;28;20042;-80
2021/08/18 12:33:18;;;;;;;6.25;3.50;;;;;;;;;;6200386;28;20057;-80
2021/08/18 12:36:19;;;;;;;8.18;4.10;;;;;;;;;;6188190;28;20048;-80
2021/08/18 12:39:28;;;;;;;10.60;4.35;;;;;;;;;;6224332;28;20052;-80
2021/08/18 12:42:43;;;;;;;3.60;2.60;;;;;;;;;;6223178;28;20056;-80
2021/08/18 12:45:48;;;;;;;4.63;2.60;;;;;;;;;;6207947;28;20134;-79
2021/08/18 12:48:52;;;;;;;4.70;2.60;;;;;;;;;;6201606;28;20045;-80
2021/08/18 12:51:55;;;;;;;5.28;2.85;;;;;;;;;;6170671;28;20052;-81
2021/08/18 12:54:59;;;;;;;2.95;2.17;;;;;;;;;;6202151;28;20050;-80
2021/08/18 12:58:02;;;;;;;2.63;2.30;;;;;;;;;;6187390;28;20052;-79
2021/08/18 13:01:03;;;;;;;16.67;7.32;;;;;;;;;;6221269;28;20064;-80
2021/08/18 13:04:05;;;;;;;7.03;3.85;;;;;;;;;;6223371;28;20068;-79
2021/08/18 13:07:07;;;;;;;13.13;6.78;;;;;;;;;;6203527;28;20073;-79
2021/08/18 13:10:09;;;;;;;8.40;5.15;;;;;;;;;;6202929;28;20038;-79
2021/08/18 13:13:11;;;;;;;6.10;4.32;;;;;;;;;;6203796;28;20054;-78
2021/08/18 13:16:15;;;;;;;6.35;4.80;;;;;;;;;;6190503;28;20035;-80
2021/08/18 13:19:17;;;;;;;3.08;2.60;;;;;;;;;;6164262;28;20117;-79
2021/08/18 13:22:22;;;;;;;10.85;7.18;;;;;;;;;;6154453;28;20180;-79
2021/08/18 13:25:23;;;;;;;8.15;6.05;;;;;;;;;;6185992;28;20118;-79
2021/08/18 13:28:29;;;;;;;2.90;2.60;;;;;;;;;;6197002;28;20518;-80
2021/08/18 13:31:35;;;;;;;2.58;2.10;;;;;;;;;;6187958;28;20050;-80
2021/08/18 13:34:41;;;;;;;2.47;2.20;;;;;;;;;;6192263;28;20048;-80
2021/08/18 13:37:46;;;;;;;2.30;2.10;;;;;;;;;;6205343;28;20380;-80
2021/08/18 13:40:53;;;;;;;2.28;2.08;;;;;;;;;;6169346;28;20057;-80
2021/08/18 13:44:02;;;;;;;2.72;2.20;;;;;;;;;;6192383;28;20438;-79
2021/08/18 13:47:04;;;;;;;2.40;2.20;;;;;;;;;;6226478;28;20048;-80
2021/08/18 13:50:06;;;;;;;3.00;2.65;;;;;;;;;;6224136;28;20041;-80
2021/08/18 13:53:08;;;;;;;2.40;2.20;;;;;;;;;;6224625;28;20280;-80
2021/08/18 13:56:09;;;;;;;2.28;2.05;;;;;;;;;;6225192;28;20056;-80
2021/08/18 13:59:11;;;;;;;2.40;2.20;;;;;;;;;;6224557;28;20113;-80
2021/08/18 14:02:13;;;;;;;2.40;2.17;;;;;;;;;;6201454;28;20034;-80
2021/08/18 14:05:15;;;;;;;2.90;2.10;;;;;;;;;;6184806;28;20106;-80
2021/08/18 14:08:17;;;;;;;3.58;2.30;;;;;;;;;;6217337;28;20555;-80
2021/08/18 14:11:19;;;;;;;3.30;1.90;;;;;;;;;;6203244;28;20050;-79
2021/08/18 14:14:20;;;;;;;2.25;1.90;;;;;;;;;;6201522;28;20053;-79
2021/08/18 14:17:23;;;;;;;2.80;1.88;;;;;;;;;;6203644;28;20072;-80
2021/08/18 14:20:25;;;;;;;;;;;;;;;;;;6203259;28;20049;-80
2021/08/18 14:23:28;;;;;;;2.67;2.00;;;;;;;;;;6188540;28;19921;-79
2021/08/18 14:26:30;;;;;;;2.95;1.90;;;;;;;;;;6223398;28;20128;-79
2021/08/18 14:29:31;;;;;;;2.90;2.40;;;;;;;;;;6225304;28;20045;-79
2021/08/18 14:32:33;;;;;;;2.42;2.22;;;;;;;;;;6225133;28;20085;-80
2021/08/18 14:35:35;;;;;;;3.10;2.30;;;;;;;;;;6225589;28;20053;-79
2021/08/18 14:38:36;;;;;;;2.80;2.15;;;;;;;;;;6222948;28;20041;-79
2021/08/18 14:41:38;;;;;;;6.03;2.30;;;;;;;;;;6210246;28;20105;-80
2021/08/18 14:44:41;;;;;;;3.17;2.28;;;;;;;;;;6216717;28;20046;-80
2021/08/18 14:47:44;;;;;;;2.60;2.38;;;;;;;;;;6203339;28;20044;-80
2021/08/18 14:50:47;;;;;;;3.97;3.00;;;;;;;;;;6223336;28;20104;-80
2021/08/18 14:53:49;;;;;;;2.97;2.67;;;;;;;;;;6209714;28;20129;-79
2021/08/18 14:56:51;;;;;;;3.40;3.00;;;;;;;;;;6201665;28;20125;-80
2021/08/18 14:59:52;;;;;;;4.13;3.35;;;;;;;;;;6202786;28;20325;-79
2021/08/18 15:02:54;;;;;;;3.97;3.50;;;;;;;;;;6198506;28;20657;-80
2021/08/18 15:05:57;;;;;;;3.40;3.10;;;;;;;;;;6222285;28;20074;-79
2021/08/18 15:08:58;;;;;;;7.05;3.45;;;;;;;;;;6209621;28;20046;-79
2021/08/18 15:12:00;;;;;;;3.40;2.83;;;;;;;;;;6225650;28;20045;-80
2021/08/18 15:15:05;;;;;;;3.97;3.38;;;;;;;;;;6223146;28;20045;-80
2021/08/18 15:18:06;;;;;;;4.40;2.83;;;;;;;;;;6220013;28;20058;-79
2021/08/18 15:21:08;;;;;;;3.30;2.75;;;;;;;;;;6218949;28;20104;-80
2021/08/18 15:24:10;;;;;;;3.75;2.85;;;;;;;;;;6223118;28;20085;-81
2021/08/18 15:27:11;;;;;;;3.50;2.92;;;;;;;;;;6190167;28;20050;-79
2021/08/18 15:30:15;;;;;;;3.13;2.83;;;;;;;;;;6201749;28;20049;-79
2021/08/18 15:33:16;;;;;;;3.35;2.65;;;;;;;;;;6196161;28;20051;-80
2021/08/18 15:36:18;;;;;;;4.07;2.58;;;;;;;;;;6193568;28;20043;-79
2021/08/18 15:39:21;;;;;;;3.55;2.72;;;;;;;;;;6194500;28;20042;-79
2021/08/18 15:42:24;;;;;;;3.45;2.65;;;;;;;;;;6205430;28;20058;-79
2021/08/18 15:45:26;;;;;;;5.28;2.65;;;;;;;;;;6228714;28;20084;-78
2021/08/18 15:48:29;;;;;;;2.90;2.60;;;;;;;;;;6206100;28;20054;-79
2021/08/18 15:51:32;;;;;;;3.15;2.70;;;;;;;;;;6212280;28;20050;-78
2021/08/18 15:54:33;;;;;;;2.67;2.47;;;;;;;;;;6226744;28;20054;-79
2021/08/18 15:57:37;;;;;;;2.92;2.63;;;;;;;;;;6203945;28;20049;-79
2021/08/18 16:00:39;;;;;;;3.00;2.70;;;;;;;;;;6226091;28;20046;-80
2021/08/18 16:03:41;;;;;;;3.35;3.05;;;;;;;;;;6226370;28;20058;-79
2021/08/18 16:06:42;;;;;;;3.20;2.58;;;;;;;;;;6223997;28;20219;-79
2021/08/18 16:09:44;;;;;;;2.85;2.53;;;;;;;;;;6227695;28;20052;-79
2021/08/18 16:12:46;;;;;;;2.78;2.35;;;;;;;;;;6229399;28;20052;-78
2021/08/18 16:15:47;;;;;;;3.58;2.80;;;;;;;;;;6218439;28;20050;-77
2021/08/18 16:18:49;;;;;;;4.13;3.00;;;;;;;;;;6223513;28;20053;-78
2021/08/18 16:21:51;;;;;;;4.68;3.20;;;;;;;;;;6230035;28;20038;-78
2021/08/18 16:24:52;;;;;;;3.33;2.90;;;;;;;;;;6213672;28;20050;-79
2021/08/18 16:27:54;;;;;;;5.63;3.40;;;;;;;;;;6214167;28;20131;-79
2021/08/18 16:30:56;;;;;;;4.00;3.30;;;;;;;;;;6222032;28;20056;-79
2021/08/18 16:34:00;;;;;;;4.50;3.13;;;;;;;;;;6201061;28;20050;-79
2021/08/18 16:37:02;;;;;;;4.20;3.30;;;;;;;;;;6209207;28;20050;-79
2021/08/18 16:40:04;;;;;;;3.97;3.25;;;;;;;;;;6187479;28;20090;-79
2021/08/18 16:43:14;;;;;;;3.72;3.17;;;;;;;;;;6197597;28;20622;-79
2021/08/18 16:46:19;;;;;;;3.55;2.80;;;;;;;;;;6159065;28;20072;-80
2021/08/18 16:49:23;;;;;;;4.90;2.75;;;;;;;;;;6219044;28;20042;-80
2021/08/18 16:52:25;;;;;;;4.30;2.22;;;;;;;;;;6203753;28;20091;-79
2021/08/18 16:55:59;;;;;;;2.90;2.10;;;;;;;;;;6200548;28;20042;-80
2021/08/18 16:59:08;;;;;;;2.95;2.00;;;;;;;;;;6174959;28;20051;-80
2021/08/18 17:02:12;;;;;;;2.92;1.75;;;;;;;;;;6189865;28;20053;-80
2021/08/18 17:05:14;;;;;;;2.58;1.63;;;;;;;;;;6193160;28;20072;-81
2021/08/18 17:08:21;;;;;;;1.85;1.40;;;;;;;;;;6174054;28;20386;-80
2021/08/18 17:11:23;;;;;;;2.15;1.60;;;;;;;;;;6151578;28;20573;-81
2021/08/18 17:14:33;;;;;;;1.55;1.40;;;;;;;;;;6138492;28;20066;-81
2021/08/18 17:17:35;;;;;;;1.42;1.30;;;;;;;;;;6187628;28;20077;-80
2021/08/18 17:20:40;;;;;;;1.47;1.30;;;;;;;;;;6175536;28;20054;-79
2021/08/18 17:23:42;;;;;;;1.83;1.52;;;;;;;;;;6202017;28;20044;-81
2021/08/18 17:26:46;;;;;;;2.13;1.40;;;;;;;;;;6189621;28;20112;-81
2021/08/18 17:29:50;;;;;;;1.85;1.67;;;;;;;;;;6190322;28;20046;-82
2021/08/18 17:32:57;;;;;;;4.05;1.50;;;;;;;;;;6157587;28;20145;-81
2021/08/18 17:35:59;;;;;;;2.53;1.50;;;;;;;;;;6202710;28;20050;-81
2021/08/18 17:39:05;;;;;;;2.03;1.77;;;;;;;;;;6199835;28;20046;-81
2021/08/18 17:42:07;;;;;;;1.90;1.67;;;;;;;;;;6199714;28;20073;-81
2021/08/18 17:45:09;;;;;;;3.63;1.87;;;;;;;;;;6200879;28;20097;-80
2021/08/18 17:48:11;;;;;;;2.72;1.92;;;;;;;;;;6178361;28;20046;-81
2021/08/18 17:51:13;;;;;;;3.63;2.08;;;;;;;;;;6195275;28;20471;-80
2021/08/18 17:54:14;;;;;;;3.92;2.20;;;;;;;;;;6186154;28;20050;-80
2021/08/18 17:57:16;;;;;;;3.25;2.00;;;;;;;;;;6192091;28;20050;-80
2021/08/18 18:00:18;;;;;;;3.40;2.40;;;;;;;;;;6198436;28;20050;-80
2021/08/18 18:03:22;;;;;;;3.60;2.25;;;;;;;;;;6182000;28;20445;-80
2021/08/18 18:06:31;;;;;;;3.03;2.22;;;;;;;;;;6214626;28;20049;-80
2021/08/18 18:09:41;;;;;;;4.05;2.47;;;;;;;;;;6197516;28;20100;-81
2021/08/18 18:12:43;;;;;;;2.22;2.00;;;;;;;;;;6206143;28;20534;-80
2021/08/18 18:15:48;;;;;;;2.85;2.22;;;;;;;;;;6193606;28;20411;-80
2021/08/18 18:18:50;;;;;;;2.47;2.10;;;;;;;;;;6195784;28;20045;-80
2021/08/18 18:21:54;;;;;;;3.83;2.50;;;;;;;;;;6202936;28;20186;-80